sensor_id;sensor_type;location;lat;lon;timestamp;P1;durP1;ratioP1;P2;durP2;ratioP2
6665;SDS011;3369;49.906;8.598;2023-12-20T00:01:16;4.50;;;4.10;;
6665;SDS011;3369;49.906;8.598;2023-12-20T00:03:44;5.03;;;4.03;;
6665;SDS011;3369;49.906;8.598;2023-12-20T00:06:09;6.00;;;4.63;;
6665;SDS011;3369;49.906;8.598;2023-12-20T00:08:50;4.83;;;4.30;;
6665;SDS011;3369;49.906;8.598;2023-12-20T00:11:23;5.37;;;4.80;;
6665;SDS011;3369;49.906;8.598;2023-12-20T00:13:55;6.47;;;4.27;;
6665;SDS011;3369;49.906;8.598;2023-12-20T00:19:27;4.23;;;3.87;;
6665;SDS011;3369;49.906;8.598;2023-12-20T00:21:55;5.47;;;4.23;;
6665;SDS011;3369;49.906;8.598;2023-12-20T00:24:36;4.20;;;3.80;;
6665;SDS011;3369;49.906;8.598;2023-12-20T00:27:02;3.90;;;3.50;;
6665;SDS011;3369;49.906;8.598;2023-12-20T00:29:29;4.30;;;3.80;;
6665;SDS011;3369;49.906;8.598;2023-12-20T00:31:55;6.13;;;3.50;;
6665;SDS011;3369;49.906;8.598;2023-12-20T00:35:02;3.30;;;3.00;;
6665;SDS011;3369;49.906;8.598;2023-12-20T00:43:12;2.73;;;2.50;;
6665;SDS011;3369;49.906;8.598;2023-12-20T00:46:01;3.50;;;2.90;;
6665;SDS011;3369;49.906;8.598;2023-12-20T00:48:27;3.53;;;3.20;;
6665;SDS011;3369;49.906;8.598;2023-12-20T00:50:57;3.47;;;2.83;;
6665;SDS011;3369;49.906;8.598;2023-12-20T00:53:23;3.17;;;2.87;;
6665;SDS011;3369;49.906;8.598;2023-12-20T00:55:50;3.00;;;2.80;;
6665;SDS011;3369;49.906;8.598;2023-12-20T00:58:17;3.23;;;2.93;;
6665;SDS011;3369;49.906;8.598;2023-12-20T01:00:59;3.13;;;2.83;;
6665;SDS011;3369;49.906;8.598;2023-12-20T01:03:35;3.67;;;2.97;;
6665;SDS011;3369;49.906;8.598;2023-12-20T01:06:19;3.17;;;2.97;;
6665;SDS011;3369;49.906;8.598;2023-12-20T01:08:55;3.03;;;2.73;;
6665;SDS011;3369;49.906;8.598;2023-12-20T01:11:21;3.73;;;3.37;;
6665;SDS011;3369;49.906;8.598;2023-12-20T01:13:49;2.83;;;2.63;;
6665;SDS011;3369;49.906;8.598;2023-12-20T01:16:16;3.93;;;2.70;;
6665;SDS011;3369;49.906;8.598;2023-12-20T01:18:57;4.00;;;2.90;;
6665;SDS011;3369;49.906;8.598;2023-12-20T01:21:23;3.20;;;2.63;;
6665;SDS011;3369;49.906;8.598;2023-12-20T01:24:09;2.90;;;2.70;;
6665;SDS011;3369;49.906;8.598;2023-12-20T01:26:35;3.97;;;3.00;;
6665;SDS011;3369;49.906;8.598;2023-12-20T01:29:01;4.33;;;3.00;;
6665;SDS011;3369;49.906;8.598;2023-12-20T01:31:30;3.10;;;2.90;;
6665;SDS011;3369;49.906;8.598;2023-12-20T01:34:16;3.27;;;2.97;;
6665;SDS011;3369;49.906;8.598;2023-12-20T01:36:45;3.03;;;2.83;;
6665;SDS011;3369;49.906;8.598;2023-12-20T01:39:13;3.63;;;3.33;;
6665;SDS011;3369;49.906;8.598;2023-12-20T01:43:07;5.53;;;3.00;;
6665;SDS011;3369;49.906;8.598;2023-12-20T01:45:13;3.40;;;3.10;;
6665;SDS011;3369;49.906;8.598;2023-12-20T01:47:48;3.40;;;3.10;;
6665;SDS011;3369;49.906;8.598;2023-12-20T01:59:51;3.57;;;3.20;;
6665;SDS011;3369;49.906;8.598;2023-12-20T02:02:28;3.50;;;3.13;;
6665;SDS011;3369;49.906;8.598;2023-12-20T02:05:46;3.33;;;3.03;;
6665;SDS011;3369;49.906;8.598;2023-12-20T02:11:39;3.73;;;3.30;;
6665;SDS011;3369;49.906;8.598;2023-12-20T02:15:02;3.30;;;3.00;;
6665;SDS011;3369;49.906;8.598;2023-12-20T02:25:32;4.73;;;3.20;;
6665;SDS011;3369;49.906;8.598;2023-12-20T02:28:14;3.47;;;3.17;;
6665;SDS011;3369;49.906;8.598;2023-12-20T02:30:40;3.20;;;2.90;;
6665;SDS011;3369;49.906;8.598;2023-12-20T02:35:54;3.43;;;3.10;;
6665;SDS011;3369;49.906;8.598;2023-12-20T02:38:42;3.60;;;3.30;;
6665;SDS011;3369;49.906;8.598;2023-12-20T02:41:07;2.97;;;2.73;;
6665;SDS011;3369;49.906;8.598;2023-12-20T02:43:41;5.20;;;3.30;;
6665;SDS011;3369;49.906;8.598;2023-12-20T02:46:38;3.60;;;3.10;;
6665;SDS011;3369;49.906;8.598;2023-12-20T02:49:32;3.30;;;3.00;;
6665;SDS011;3369;49.906;8.598;2023-12-20T02:55:28;3.03;;;2.83;;
6665;SDS011;3369;49.906;8.598;2023-12-20T02:57:56;3.20;;;2.90;;
6665;SDS011;3369;49.906;8.598;2023-12-20T03:00:24;3.50;;;3.10;;
6665;SDS011;3369;49.906;8.598;2023-12-20T03:02:55;3.37;;;2.80;;
6665;SDS011;3369;49.906;8.598;2023-12-20T03:05:34;4.37;;;2.90;;
6665;SDS011;3369;49.906;8.598;2023-12-20T03:17:18;2.90;;;2.60;;
6665;SDS011;3369;49.906;8.598;2023-12-20T03:19:53;3.10;;;2.80;;
6665;SDS011;3369;49.906;8.598;2023-12-20T03:22:23;2.60;;;2.40;;
6665;SDS011;3369;49.906;8.598;2023-12-20T03:25:01;2.23;;;2.13;;
6665;SDS011;3369;49.906;8.598;2023-12-20T03:36:57;2.47;;;2.20;;
6665;SDS011;3369;49.906;8.598;2023-12-20T03:42:40;2.73;;;2.53;;
6665;SDS011;3369;49.906;8.598;2023-12-20T03:45:13;2.57;;;2.37;;
6665;SDS011;3369;49.906;8.598;2023-12-20T03:47:43;2.80;;;2.60;;
6665;SDS011;3369;49.906;8.598;2023-12-20T03:50:24;2.57;;;2.10;;
6665;SDS011;3369;49.906;8.598;2023-12-20T03:56:56;2.77;;;2.40;;
6665;SDS011;3369;49.906;8.598;2023-12-20T03:59:54;2.07;;;1.97;;
6665;SDS011;3369;49.906;8.598;2023-12-20T04:03:15;2.37;;;2.17;;
6665;SDS011;3369;49.906;8.598;2023-12-20T04:12:54;4.43;;;2.53;;
6665;SDS011;3369;49.906;8.598;2023-12-20T04:18:49;2.73;;;2.43;;
6665;SDS011;3369;49.906;8.598;2023-12-20T04:21:44;2.90;;;2.20;;
6665;SDS011;3369;49.906;8.598;2023-12-20T04:27:32;2.70;;;2.50;;
6665;SDS011;3369;49.906;8.598;2023-12-20T04:33:31;2.90;;;2.70;;
6665;SDS011;3369;49.906;8.598;2023-12-20T04:36:06;3.37;;;2.43;;
6665;SDS011;3369;49.906;8.598;2023-12-20T04:39:22;2.50;;;2.30;;
6665;SDS011;3369;49.906;8.598;2023-12-20T04:41:56;3.67;;;2.50;;
6665;SDS011;3369;49.906;8.598;2023-12-20T04:47:47;3.20;;;2.40;;
6665;SDS011;3369;49.906;8.598;2023-12-20T05:14:32;3.43;;;3.13;;
6665;SDS011;3369;49.906;8.598;2023-12-20T05:20:06;2.90;;;2.70;;
6665;SDS011;3369;49.906;8.598;2023-12-20T05:23:25;2.50;;;2.30;;
6665;SDS011;3369;49.906;8.598;2023-12-20T05:25:51;2.63;;;2.43;;
6665;SDS011;3369;49.906;8.598;2023-12-20T05:31:38;2.50;;;2.27;;
6665;SDS011;3369;49.906;8.598;2023-12-20T05:36:59;2.73;;;2.20;;
6665;SDS011;3369;49.906;8.598;2023-12-20T06:07:20;3.00;;;2.20;;
6665;SDS011;3369;49.906;8.598;2023-12-20T06:09:56;2.77;;;2.10;;
6665;SDS011;3369;49.906;8.598;2023-12-20T06:12:30;2.27;;;1.90;;
6665;SDS011;3369;49.906;8.598;2023-12-20T06:14:58;2.37;;;1.67;;
6665;SDS011;3369;49.906;8.598;2023-12-20T06:20:25;2.23;;;1.50;;
6665;SDS011;3369;49.906;8.598;2023-12-20T06:22:51;1.47;;;1.37;;
6665;SDS011;3369;49.906;8.598;2023-12-20T06:25:22;2.37;;;1.60;;
6665;SDS011;3369;49.906;8.598;2023-12-20T06:27:48;1.80;;;1.40;;
6665;SDS011;3369;49.906;8.598;2023-12-20T06:30:16;2.97;;;1.60;;
6665;SDS011;3369;49.906;8.598;2023-12-20T06:32:46;2.93;;;1.43;;
6665;SDS011;3369;49.906;8.598;2023-12-20T06:35:22;3.27;;;1.57;;
6665;SDS011;3369;49.906;8.598;2023-12-20T06:37:49;2.00;;;1.57;;
6665;SDS011;3369;49.906;8.598;2023-12-20T06:40:16;2.67;;;1.90;;
6665;SDS011;3369;49.906;8.598;2023-12-20T06:42:42;2.20;;;1.80;;
6665;SDS011;3369;49.906;8.598;2023-12-20T06:45:07;2.77;;;2.53;;
6665;SDS011;3369;49.906;8.598;2023-12-20T06:47:34;2.57;;;2.20;;
6665;SDS011;3369;49.906;8.598;2023-12-20T06:50:03;2.30;;;2.10;;
6665;SDS011;3369;49.906;8.598;2023-12-20T06:52:29;2.40;;;2.03;;
6665;SDS011;3369;49.906;8.598;2023-12-20T06:55:14;1.90;;;1.80;;
6665;SDS011;3369;49.906;8.598;2023-12-20T06:57:40;3.53;;;2.30;;
6665;SDS011;3369;49.906;8.598;2023-12-20T07:00:05;5.87;;;2.23;;
6665;SDS011;3369;49.906;8.598;2023-12-20T07:02:39;2.87;;;2.10;;
6665;SDS011;3369;49.906;8.598;2023-12-20T07:05:15;2.30;;;2.10;;
6665;SDS011;3369;49.906;8.598;2023-12-20T07:07:42;2.40;;;2.13;;
6665;SDS011;3369;49.906;8.598;2023-12-20T07:10:20;5.07;;;2.10;;
6665;SDS011;3369;49.906;8.598;2023-12-20T07:12:46;5.70;;;2.40;;
6665;SDS011;3369;49.906;8.598;2023-12-20T07:15:26;5.63;;;2.50;;
6665;SDS011;3369;49.906;8.598;2023-12-20T07:20:55;4.00;;;2.43;;
6665;SDS011;3369;49.906;8.598;2023-12-20T07:23:21;4.53;;;2.20;;
6665;SDS011;3369;49.906;8.598;2023-12-20T07:26:16;2.73;;;2.00;;
6665;SDS011;3369;49.906;8.598;2023-12-20T07:28:42;6.03;;;2.40;;
6665;SDS011;3369;49.906;8.598;2023-12-20T07:31:08;2.83;;;2.07;;
6665;SDS011;3369;49.906;8.598;2023-12-20T07:33:33;3.77;;;2.60;;
6665;SDS011;3369;49.906;8.598;2023-12-20T07:35:59;5.33;;;2.23;;
6665;SDS011;3369;49.906;8.598;2023-12-20T07:38:25;3.70;;;2.37;;
6665;SDS011;3369;49.906;8.598;2023-12-20T07:40:51;3.43;;;2.20;;
6665;SDS011;3369;49.906;8.598;2023-12-20T07:43:17;6.10;;;2.30;;
6665;SDS011;3369;49.906;8.598;2023-12-20T07:45:42;8.67;;;5.70;;
6665;SDS011;3369;49.906;8.598;2023-12-20T07:48:08;5.97;;;5.50;;
6665;SDS011;3369;49.906;8.598;2023-12-20T07:50:33;13.90;;;9.73;;
6665;SDS011;3369;49.906;8.598;2023-12-20T07:52:59;14.40;;;10.97;;
6665;SDS011;3369;49.906;8.598;2023-12-20T07:55:26;11.30;;;6.43;;
6665;SDS011;3369;49.906;8.598;2023-12-20T07:57:52;8.13;;;5.37;;
6665;SDS011;3369;49.906;8.598;2023-12-20T08:00:18;5.40;;;4.77;;
6665;SDS011;3369;49.906;8.598;2023-12-20T08:02:44;4.57;;;3.10;;
6665;SDS011;3369;49.906;8.598;2023-12-20T08:05:10;3.03;;;2.47;;
6665;SDS011;3369;49.906;8.598;2023-12-20T08:07:35;3.40;;;2.50;;
6665;SDS011;3369;49.906;8.598;2023-12-20T08:10:01;5.17;;;2.40;;
6665;SDS011;3369;49.906;8.598;2023-12-20T08:12:27;3.57;;;2.20;;
6665;SDS011;3369;49.906;8.598;2023-12-20T08:14:53;5.53;;;2.47;;
6665;SDS011;3369;49.906;8.598;2023-12-20T08:17:19;3.07;;;1.83;;
6665;SDS011;3369;49.906;8.598;2023-12-20T08:19:45;4.23;;;1.90;;
6665;SDS011;3369;49.906;8.598;2023-12-20T08:22:11;7.13;;;1.83;;
6665;SDS011;3369;49.906;8.598;2023-12-20T08:24:37;4.60;;;2.67;;
6665;SDS011;3369;49.906;8.598;2023-12-20T08:27:03;4.50;;;1.90;;
6665;SDS011;3369;49.906;8.598;2023-12-20T08:29:29;5.67;;;1.90;;
6665;SDS011;3369;49.906;8.598;2023-12-20T08:31:55;6.27;;;2.77;;
6665;SDS011;3369;49.906;8.598;2023-12-20T08:34:21;2.93;;;2.13;;
6665;SDS011;3369;49.906;8.598;2023-12-20T08:36:46;5.07;;;2.30;;
6665;SDS011;3369;49.906;8.598;2023-12-20T08:39:12;4.90;;;2.27;;
6665;SDS011;3369;49.906;8.598;2023-12-20T08:41:38;3.80;;;2.10;;
6665;SDS011;3369;49.906;8.598;2023-12-20T08:44:03;5.70;;;2.17;;
6665;SDS011;3369;49.906;8.598;2023-12-20T08:46:29;4.80;;;2.10;;
6665;SDS011;3369;49.906;8.598;2023-12-20T08:48:55;6.50;;;2.23;;
6665;SDS011;3369;49.906;8.598;2023-12-20T08:51:20;4.63;;;1.87;;
6665;SDS011;3369;49.906;8.598;2023-12-20T08:53:47;2.20;;;2.00;;
6665;SDS011;3369;49.906;8.598;2023-12-20T08:56:14;4.83;;;2.30;;
6665;SDS011;3369;49.906;8.598;2023-12-20T08:58:40;4.23;;;2.17;;
6665;SDS011;3369;49.906;8.598;2023-12-20T09:01:06;5.53;;;2.00;;
6665;SDS011;3369;49.906;8.598;2023-12-20T09:03:32;7.00;;;2.37;;
6665;SDS011;3369;49.906;8.598;2023-12-20T09:05:58;4.40;;;1.80;;
6665;SDS011;3369;49.906;8.598;2023-12-20T09:08:23;6.00;;;1.73;;
6665;SDS011;3369;49.906;8.598;2023-12-20T09:10:49;3.97;;;2.00;;
6665;SDS011;3369;49.906;8.598;2023-12-20T09:13:15;3.10;;;1.80;;
6665;SDS011;3369;49.906;8.598;2023-12-20T09:15:40;4.77;;;2.13;;
6665;SDS011;3369;49.906;8.598;2023-12-20T09:18:06;4.37;;;2.20;;
6665;SDS011;3369;49.906;8.598;2023-12-20T09:20:32;4.43;;;1.80;;
6665;SDS011;3369;49.906;8.598;2023-12-20T09:22:58;4.93;;;2.10;;
6665;SDS011;3369;49.906;8.598;2023-12-20T09:25:24;7.93;;;2.70;;
6665;SDS011;3369;49.906;8.598;2023-12-20T09:27:51;3.30;;;2.10;;
6665;SDS011;3369;49.906;8.598;2023-12-20T09:30:17;8.00;;;1.97;;
6665;SDS011;3369;49.906;8.598;2023-12-20T09:32:43;5.23;;;1.90;;
6665;SDS011;3369;49.906;8.598;2023-12-20T09:35:10;6.03;;;2.13;;
6665;SDS011;3369;49.906;8.598;2023-12-20T09:37:35;4.17;;;2.23;;
6665;SDS011;3369;49.906;8.598;2023-12-20T09:40:01;6.03;;;2.20;;
6665;SDS011;3369;49.906;8.598;2023-12-20T09:42:38;4.47;;;1.83;;
6665;SDS011;3369;49.906;8.598;2023-12-20T09:45:20;4.43;;;2.07;;
6665;SDS011;3369;49.906;8.598;2023-12-20T09:47:50;5.07;;;2.13;;
6665;SDS011;3369;49.906;8.598;2023-12-20T09:50:17;2.50;;;1.83;;
6665;SDS011;3369;49.906;8.598;2023-12-20T09:52:44;4.93;;;2.00;;
6665;SDS011;3369;49.906;8.598;2023-12-20T09:55:15;2.47;;;1.80;;
6665;SDS011;3369;49.906;8.598;2023-12-20T09:57:45;2.00;;;1.80;;
6665;SDS011;3369;49.906;8.598;2023-12-20T10:00:11;2.93;;;2.10;;
6665;SDS011;3369;49.906;8.598;2023-12-20T10:02:59;4.13;;;2.17;;
6665;SDS011;3369;49.906;8.598;2023-12-20T10:05:28;4.53;;;2.07;;
6665;SDS011;3369;49.906;8.598;2023-12-20T10:07:54;6.30;;;2.27;;
6665;SDS011;3369;49.906;8.598;2023-12-20T10:10:20;6.33;;;2.50;;
6665;SDS011;3369;49.906;8.598;2023-12-20T10:15:31;4.67;;;2.10;;
6665;SDS011;3369;49.906;8.598;2023-12-20T10:17:58;6.10;;;2.60;;
6665;SDS011;3369;49.906;8.598;2023-12-20T10:20:24;4.97;;;2.00;;
6665;SDS011;3369;49.906;8.598;2023-12-20T10:22:51;4.03;;;2.37;;
6665;SDS011;3369;49.906;8.598;2023-12-20T10:25:18;2.63;;;2.23;;
6665;SDS011;3369;49.906;8.598;2023-12-20T10:27:46;5.27;;;3.87;;
6665;SDS011;3369;49.906;8.598;2023-12-20T10:30:12;5.77;;;2.50;;
6665;SDS011;3369;49.906;8.598;2023-12-20T10:32:39;10.07;;;7.53;;
6665;SDS011;3369;49.906;8.598;2023-12-20T10:35:06;7.03;;;5.70;;
6665;SDS011;3369;49.906;8.598;2023-12-20T10:37:35;4.77;;;2.73;;
6665;SDS011;3369;49.906;8.598;2023-12-20T10:40:03;5.13;;;2.40;;
6665;SDS011;3369;49.906;8.598;2023-12-20T10:42:31;7.00;;;2.63;;
6665;SDS011;3369;49.906;8.598;2023-12-20T10:44:59;5.37;;;2.03;;
6665;SDS011;3369;49.906;8.598;2023-12-20T10:47:25;3.57;;;2.30;;
6665;SDS011;3369;49.906;8.598;2023-12-20T10:49:54;5.80;;;2.03;;
6665;SDS011;3369;49.906;8.598;2023-12-20T10:52:22;3.50;;;2.03;;
6665;SDS011;3369;49.906;8.598;2023-12-20T10:54:49;4.13;;;2.00;;
6665;SDS011;3369;49.906;8.598;2023-12-20T10:57:16;6.27;;;2.27;;
6665;SDS011;3369;49.906;8.598;2023-12-20T10:59:43;6.70;;;2.47;;
6665;SDS011;3369;49.906;8.598;2023-12-20T11:02:14;6.63;;;2.47;;
6665;SDS011;3369;49.906;8.598;2023-12-20T11:04:46;4.63;;;2.30;;
6665;SDS011;3369;49.906;8.598;2023-12-20T11:07:34;5.27;;;1.80;;
6665;SDS011;3369;49.906;8.598;2023-12-20T11:10:10;6.43;;;2.57;;
6665;SDS011;3369;49.906;8.598;2023-12-20T11:12:52;4.83;;;1.90;;
6665;SDS011;3369;49.906;8.598;2023-12-20T11:15:22;5.10;;;1.80;;
6665;SDS011;3369;49.906;8.598;2023-12-20T11:17:56;10.00;;;2.43;;
6665;SDS011;3369;49.906;8.598;2023-12-20T11:20:23;4.57;;;1.87;;
6665;SDS011;3369;49.906;8.598;2023-12-20T11:22:59;6.97;;;1.90;;
6665;SDS011;3369;49.906;8.598;2023-12-20T11:25:25;7.73;;;1.90;;
6665;SDS011;3369;49.906;8.598;2023-12-20T11:28:08;6.60;;;2.30;;
6665;SDS011;3369;49.906;8.598;2023-12-20T11:30:56;6.70;;;2.67;;
6665;SDS011;3369;49.906;8.598;2023-12-20T11:33:25;6.60;;;2.67;;
6665;SDS011;3369;49.906;8.598;2023-12-20T11:35:52;7.53;;;2.30;;
6665;SDS011;3369;49.906;8.598;2023-12-20T11:38:21;6.07;;;2.03;;
6665;SDS011;3369;49.906;8.598;2023-12-20T11:40:48;4.90;;;2.00;;
6665;SDS011;3369;49.906;8.598;2023-12-20T11:46:07;4.40;;;2.27;;
6665;SDS011;3369;49.906;8.598;2023-12-20T11:48:37;7.50;;;2.43;;
6665;SDS011;3369;49.906;8.598;2023-12-20T11:51:11;6.27;;;2.10;;
6665;SDS011;3369;49.906;8.598;2023-12-20T11:53:40;4.97;;;2.17;;
6665;SDS011;3369;49.906;8.598;2023-12-20T11:56:07;5.33;;;2.07;;
6665;SDS011;3369;49.906;8.598;2023-12-20T11:58:33;3.80;;;2.10;;
6665;SDS011;3369;49.906;8.598;2023-12-20T12:00:59;2.70;;;2.00;;
6665;SDS011;3369;49.906;8.598;2023-12-20T12:03:27;6.23;;;1.93;;
6665;SDS011;3369;49.906;8.598;2023-12-20T12:05:53;6.93;;;2.17;;
6665;SDS011;3369;49.906;8.598;2023-12-20T12:08:18;4.37;;;1.97;;
6665;SDS011;3369;49.906;8.598;2023-12-20T12:10:44;3.17;;;1.50;;
6665;SDS011;3369;49.906;8.598;2023-12-20T12:13:10;4.67;;;1.67;;
6665;SDS011;3369;49.906;8.598;2023-12-20T12:15:37;4.43;;;2.00;;
6665;SDS011;3369;49.906;8.598;2023-12-20T12:18:02;4.07;;;1.63;;
6665;SDS011;3369;49.906;8.598;2023-12-20T12:20:30;7.03;;;2.10;;
6665;SDS011;3369;49.906;8.598;2023-12-20T12:25:25;3.90;;;1.70;;
6665;SDS011;3369;49.906;8.598;2023-12-20T12:27:51;4.70;;;1.77;;
6665;SDS011;3369;49.906;8.598;2023-12-20T12:30:17;7.17;;;2.10;;
6665;SDS011;3369;49.906;8.598;2023-12-20T12:32:46;8.40;;;2.13;;
6665;SDS011;3369;49.906;8.598;2023-12-20T12:35:11;5.30;;;2.03;;
6665;SDS011;3369;49.906;8.598;2023-12-20T12:37:38;2.87;;;1.80;;
6665;SDS011;3369;49.906;8.598;2023-12-20T12:40:14;4.60;;;1.70;;
6665;SDS011;3369;49.906;8.598;2023-12-20T12:42:42;4.73;;;1.80;;
6665;SDS011;3369;49.906;8.598;2023-12-20T12:45:09;4.80;;;2.00;;
6665;SDS011;3369;49.906;8.598;2023-12-20T12:47:36;8.80;;;2.23;;
6665;SDS011;3369;49.906;8.598;2023-12-20T12:50:02;4.10;;;1.70;;
6665;SDS011;3369;49.906;8.598;2023-12-20T12:52:28;4.37;;;2.00;;
6665;SDS011;3369;49.906;8.598;2023-12-20T12:54:53;6.13;;;2.13;;
6665;SDS011;3369;49.906;8.598;2023-12-20T12:57:19;6.63;;;2.63;;
6665;SDS011;3369;49.906;8.598;2023-12-20T12:59:45;4.90;;;2.30;;
6665;SDS011;3369;49.906;8.598;2023-12-20T13:02:14;5.43;;;2.50;;
6665;SDS011;3369;49.906;8.598;2023-12-20T13:04:40;13.17;;;2.20;;
6665;SDS011;3369;49.906;8.598;2023-12-20T13:07:06;5.03;;;2.50;;
6665;SDS011;3369;49.906;8.598;2023-12-20T13:09:33;4.80;;;2.07;;
6665;SDS011;3369;49.906;8.598;2023-12-20T13:11:58;3.27;;;1.93;;
6665;SDS011;3369;49.906;8.598;2023-12-20T13:14:24;6.33;;;2.13;;
6665;SDS011;3369;49.906;8.598;2023-12-20T13:16:50;7.20;;;2.10;;
6665;SDS011;3369;49.906;8.598;2023-12-20T13:19:15;6.53;;;2.67;;
6665;SDS011;3369;49.906;8.598;2023-12-20T13:21:41;4.13;;;2.10;;
6665;SDS011;3369;49.906;8.598;2023-12-20T13:24:07;4.00;;;2.00;;
6665;SDS011;3369;49.906;8.598;2023-12-20T13:26:32;5.40;;;2.10;;
6665;SDS011;3369;49.906;8.598;2023-12-20T13:28:58;6.73;;;1.90;;
6665;SDS011;3369;49.906;8.598;2023-12-20T13:31:24;9.90;;;2.47;;
6665;SDS011;3369;49.906;8.598;2023-12-20T13:33:49;4.70;;;1.77;;
6665;SDS011;3369;49.906;8.598;2023-12-20T13:36:17;6.17;;;2.13;;
6665;SDS011;3369;49.906;8.598;2023-12-20T13:38:43;5.57;;;1.90;;
6665;SDS011;3369;49.906;8.598;2023-12-20T13:41:08;5.00;;;1.90;;
6665;SDS011;3369;49.906;8.598;2023-12-20T13:43:34;4.43;;;1.80;;
6665;SDS011;3369;49.906;8.598;2023-12-20T13:46:00;5.60;;;1.73;;
6665;SDS011;3369;49.906;8.598;2023-12-20T13:48:25;4.00;;;2.53;;
6665;SDS011;3369;49.906;8.598;2023-12-20T13:50:51;5.87;;;2.00;;
6665;SDS011;3369;49.906;8.598;2023-12-20T13:53:17;7.37;;;2.20;;
6665;SDS011;3369;49.906;8.598;2023-12-20T13:55:42;5.07;;;1.93;;
6665;SDS011;3369;49.906;8.598;2023-12-20T13:58:08;5.50;;;2.27;;
6665;SDS011;3369;49.906;8.598;2023-12-20T14:00:35;3.83;;;1.90;;
6665;SDS011;3369;49.906;8.598;2023-12-20T14:03:01;6.70;;;1.63;;
6665;SDS011;3369;49.906;8.598;2023-12-20T14:05:28;4.90;;;1.83;;
6665;SDS011;3369;49.906;8.598;2023-12-20T14:07:54;3.47;;;1.90;;
6665;SDS011;3369;49.906;8.598;2023-12-20T14:10:19;2.70;;;1.60;;
6665;SDS011;3369;49.906;8.598;2023-12-20T14:12:45;9.57;;;1.83;;
6665;SDS011;3369;49.906;8.598;2023-12-20T14:15:11;4.63;;;2.03;;
6665;SDS011;3369;49.906;8.598;2023-12-20T14:17:38;3.93;;;1.70;;
6665;SDS011;3369;49.906;8.598;2023-12-20T14:20:07;7.07;;;1.70;;
6665;SDS011;3369;49.906;8.598;2023-12-20T14:22:33;3.60;;;1.50;;
6665;SDS011;3369;49.906;8.598;2023-12-20T14:25:00;4.23;;;1.60;;
6665;SDS011;3369;49.906;8.598;2023-12-20T14:27:26;5.10;;;1.73;;
6665;SDS011;3369;49.906;8.598;2023-12-20T14:29:55;4.53;;;1.60;;
6665;SDS011;3369;49.906;8.598;2023-12-20T14:32:21;4.03;;;1.50;;
6665;SDS011;3369;49.906;8.598;2023-12-20T14:34:46;2.77;;;1.63;;
6665;SDS011;3369;49.906;8.598;2023-12-20T14:37:12;3.47;;;1.67;;
6665;SDS011;3369;49.906;8.598;2023-12-20T14:39:38;4.47;;;1.47;;
6665;SDS011;3369;49.906;8.598;2023-12-20T14:42:06;5.60;;;1.50;;
6665;SDS011;3369;49.906;8.598;2023-12-20T14:44:36;4.33;;;1.60;;
6665;SDS011;3369;49.906;8.598;2023-12-20T14:47:01;4.50;;;1.63;;
6665;SDS011;3369;49.906;8.598;2023-12-20T14:49:27;8.40;;;1.87;;
6665;SDS011;3369;49.906;8.598;2023-12-20T14:51:53;3.77;;;1.70;;
6665;SDS011;3369;49.906;8.598;2023-12-20T14:54:19;4.17;;;1.60;;
6665;SDS011;3369;49.906;8.598;2023-12-20T14:56:46;2.97;;;1.50;;
6665;SDS011;3369;49.906;8.598;2023-12-20T14:59:12;4.63;;;1.70;;
6665;SDS011;3369;49.906;8.598;2023-12-20T15:01:37;3.67;;;1.40;;
6665;SDS011;3369;49.906;8.598;2023-12-20T15:04:05;6.07;;;1.83;;
6665;SDS011;3369;49.906;8.598;2023-12-20T15:06:31;2.63;;;1.37;;
6665;SDS011;3369;49.906;8.598;2023-12-20T15:08:57;2.27;;;1.37;;
6665;SDS011;3369;49.906;8.598;2023-12-20T15:11:23;2.73;;;1.40;;
6665;SDS011;3369;49.906;8.598;2023-12-20T15:13:49;6.27;;;1.67;;
6665;SDS011;3369;49.906;8.598;2023-12-20T15:16:20;4.53;;;1.90;;
6665;SDS011;3369;49.906;8.598;2023-12-20T15:18:46;7.60;;;1.40;;
6665;SDS011;3369;49.906;8.598;2023-12-20T15:21:11;4.47;;;1.70;;
6665;SDS011;3369;49.906;8.598;2023-12-20T15:23:37;2.47;;;1.43;;
6665;SDS011;3369;49.906;8.598;2023-12-20T15:26:03;5.93;;;2.13;;
6665;SDS011;3369;49.906;8.598;2023-12-20T15:28:29;3.73;;;1.70;;
6665;SDS011;3369;49.906;8.598;2023-12-20T15:30:55;2.80;;;1.43;;
6665;SDS011;3369;49.906;8.598;2023-12-20T15:33:21;5.00;;;1.77;;
6665;SDS011;3369;49.906;8.598;2023-12-20T15:35:47;3.27;;;1.53;;
6665;SDS011;3369;49.906;8.598;2023-12-20T15:38:13;3.10;;;1.50;;
6665;SDS011;3369;49.906;8.598;2023-12-20T15:40:39;3.33;;;1.60;;
6665;SDS011;3369;49.906;8.598;2023-12-20T15:43:04;8.57;;;1.97;;
6665;SDS011;3369;49.906;8.598;2023-12-20T15:45:30;3.30;;;1.53;;
6665;SDS011;3369;49.906;8.598;2023-12-20T15:47:56;3.47;;;1.30;;
6665;SDS011;3369;49.906;8.598;2023-12-20T15:50:21;7.30;;;2.40;;
6665;SDS011;3369;49.906;8.598;2023-12-20T15:52:47;5.23;;;1.67;;
6665;SDS011;3369;49.906;8.598;2023-12-20T15:55:12;3.90;;;1.70;;
6665;SDS011;3369;49.906;8.598;2023-12-20T15:57:38;6.00;;;1.70;;
6665;SDS011;3369;49.906;8.598;2023-12-20T16:00:04;3.87;;;1.77;;
6665;SDS011;3369;49.906;8.598;2023-12-20T16:02:31;7.10;;;2.00;;
6665;SDS011;3369;49.906;8.598;2023-12-20T16:04:56;6.83;;;2.00;;
6665;SDS011;3369;49.906;8.598;2023-12-20T16:07:22;7.40;;;2.20;;
6665;SDS011;3369;49.906;8.598;2023-12-20T16:09:48;7.70;;;2.97;;
6665;SDS011;3369;49.906;8.598;2023-12-20T16:12:13;6.07;;;1.87;;
6665;SDS011;3369;49.906;8.598;2023-12-20T16:14:39;3.50;;;1.90;;
6665;SDS011;3369;49.906;8.598;2023-12-20T16:17:04;3.40;;;2.03;;
6665;SDS011;3369;49.906;8.598;2023-12-20T16:19:30;8.87;;;2.57;;
6665;SDS011;3369;49.906;8.598;2023-12-20T16:21:56;3.83;;;1.70;;
6665;SDS011;3369;49.906;8.598;2023-12-20T16:24:21;5.30;;;2.13;;
6665;SDS011;3369;49.906;8.598;2023-12-20T16:26:47;6.07;;;2.30;;
6665;SDS011;3369;49.906;8.598;2023-12-20T16:29:13;6.07;;;2.47;;
6665;SDS011;3369;49.906;8.598;2023-12-20T16:31:39;6.90;;;2.33;;
6665;SDS011;3369;49.906;8.598;2023-12-20T16:34:04;3.50;;;2.17;;
6665;SDS011;3369;49.906;8.598;2023-12-20T16:37:03;5.33;;;2.33;;
6665;SDS011;3369;49.906;8.598;2023-12-20T16:39:23;6.57;;;2.53;;
6665;SDS011;3369;49.906;8.598;2023-12-20T16:41:49;9.87;;;3.03;;
6665;SDS011;3369;49.906;8.598;2023-12-20T16:44:15;5.43;;;2.37;;
6665;SDS011;3369;49.906;8.598;2023-12-20T16:46:41;8.07;;;2.63;;
6665;SDS011;3369;49.906;8.598;2023-12-20T16:49:07;13.50;;;2.77;;
6665;SDS011;3369;49.906;8.598;2023-12-20T16:51:33;9.00;;;3.23;;
6665;SDS011;3369;49.906;8.598;2023-12-20T16:53:59;8.73;;;2.90;;
6665;SDS011;3369;49.906;8.598;2023-12-20T16:56:25;7.53;;;2.83;;
6665;SDS011;3369;49.906;8.598;2023-12-20T16:58:51;6.53;;;2.63;;
6665;SDS011;3369;49.906;8.598;2023-12-20T17:01:16;6.77;;;2.67;;
6665;SDS011;3369;49.906;8.598;2023-12-20T17:03:43;8.13;;;2.93;;
6665;SDS011;3369;49.906;8.598;2023-12-20T17:06:09;6.93;;;2.40;;
6665;SDS011;3369;49.906;8.598;2023-12-20T17:08:35;10.80;;;2.43;;
6665;SDS011;3369;49.906;8.598;2023-12-20T17:11:01;6.97;;;2.80;;
6665;SDS011;3369;49.906;8.598;2023-12-20T17:13:27;9.67;;;3.37;;
6665;SDS011;3369;49.906;8.598;2023-12-20T17:15:53;7.07;;;2.40;;
6665;SDS011;3369;49.906;8.598;2023-12-20T17:18:19;9.47;;;2.60;;
6665;SDS011;3369;49.906;8.598;2023-12-20T17:20:44;7.53;;;2.83;;
6665;SDS011;3369;49.906;8.598;2023-12-20T17:23:10;6.03;;;2.57;;
6665;SDS011;3369;49.906;8.598;2023-12-20T17:25:35;6.33;;;2.50;;
6665;SDS011;3369;49.906;8.598;2023-12-20T17:28:04;5.50;;;2.53;;
6665;SDS011;3369;49.906;8.598;2023-12-20T17:30:30;11.10;;;3.33;;
6665;SDS011;3369;49.906;8.598;2023-12-20T17:32:56;7.77;;;3.07;;
6665;SDS011;3369;49.906;8.598;2023-12-20T17:35:22;8.53;;;2.80;;
6665;SDS011;3369;49.906;8.598;2023-12-20T17:37:48;13.00;;;2.90;;
6665;SDS011;3369;49.906;8.598;2023-12-20T17:40:13;6.77;;;2.70;;
6665;SDS011;3369;49.906;8.598;2023-12-20T17:42:40;4.17;;;2.73;;
6665;SDS011;3369;49.906;8.598;2023-12-20T17:45:06;7.53;;;2.80;;
6665;SDS011;3369;49.906;8.598;2023-12-20T17:47:31;6.47;;;2.90;;
6665;SDS011;3369;49.906;8.598;2023-12-20T17:49:57;6.13;;;3.10;;
6665;SDS011;3369;49.906;8.598;2023-12-20T17:52:23;10.03;;;2.77;;
6665;SDS011;3369;49.906;8.598;2023-12-20T17:54:48;6.00;;;2.57;;
6665;SDS011;3369;49.906;8.598;2023-12-20T17:57:14;5.13;;;2.40;;
6665;SDS011;3369;49.906;8.598;2023-12-20T17:59:40;5.07;;;2.50;;
6665;SDS011;3369;49.906;8.598;2023-12-20T18:02:06;6.17;;;2.77;;
6665;SDS011;3369;49.906;8.598;2023-12-20T18:04:32;5.90;;;2.50;;
6665;SDS011;3369;49.906;8.598;2023-12-20T18:06:58;4.80;;;3.00;;